createdAt,value
2019-03-05T00:01:18.767Z,3.17
2019-03-05T00:03:48.339Z,3.20
2019-03-05T00:06:17.929Z,2.83
2019-03-05T00:08:47.390Z,2.60
2019-03-05T00:11:16.881Z,2.87
2019-03-05T00:13:46.041Z,2.80
2019-03-05T00:16:15.158Z,2.92
2019-03-05T00:18:44.235Z,3.08
2019-03-05T00:21:13.727Z,2.70
2019-03-05T00:23:47.742Z,2.65
2019-03-05T00:28:52.269Z,2.77
2019-03-05T00:31:27.642Z,2.65
2019-03-05T00:34:08.345Z,2.67
2019-03-05T00:36:43.279Z,2.50
2019-03-05T00:39:20.927Z,3.17
2019-03-05T00:41:58.489Z,2.22
2019-03-05T00:44:46.841Z,2.50
2019-03-05T00:47:19.129Z,2.50
2019-03-05T00:50:13.791Z,2.17
2019-03-05T00:55:38.421Z,2.70
2019-03-05T00:58:13.091Z,2.37
2019-03-05T01:01:09.690Z,2.70
2019-03-05T01:03:50.560Z,2.77
2019-03-05T01:06:22.360Z,2.70
2019-03-05T01:08:52.797Z,2.85
2019-03-05T01:11:22.899Z,2.55
2019-03-05T01:13:52.558Z,2.50
2019-03-05T01:16:23.628Z,2.17
2019-03-05T01:18:52.652Z,2.70
2019-03-05T01:21:21.676Z,2.75
2019-03-05T01:23:50.612Z,3.37
2019-03-05T01:26:20.347Z,3.15
2019-03-05T01:28:49.560Z,3.30
2019-03-05T01:31:36.776Z,3.22
2019-03-05T01:34:10.588Z,3.50
2019-03-05T01:36:47.149Z,3.70
2019-03-05T01:39:27.725Z,3.45
2019-03-05T01:41:58.686Z,3.50
2019-03-05T01:44:27.780Z,3.20
2019-03-05T01:46:57.175Z,3.80
2019-03-05T01:49:26.185Z,4.08
2019-03-05T01:51:55.103Z,3.05
2019-03-05T01:54:24.537Z,3.20
2019-03-05T01:56:53.590Z,3.15
2019-03-05T01:59:23.972Z,3.22
2019-03-05T02:01:52.974Z,3.02
2019-03-05T02:04:25.490Z,3.45
2019-03-05T02:06:55.089Z,3.37
2019-03-05T02:09:24.055Z,3.27
2019-03-05T02:11:53.588Z,3.33
2019-03-05T02:14:22.616Z,3.37
2019-03-05T02:16:51.950Z,4.05
2019-03-05T02:19:40.921Z,4.00
2019-03-05T02:22:13.110Z,4.33
2019-03-05T02:24:56.634Z,4.00
2019-03-05T02:27:37.918Z,3.05
2019-03-05T02:30:24.482Z,3.70
2019-03-05T02:33:05.592Z,4.30
2019-03-05T02:35:52.620Z,4.08
2019-03-05T02:38:27.542Z,4.85
2019-03-05T02:41:02.250Z,4.40
2019-03-05T02:43:40.200Z,4.58
2019-03-05T02:46:34.803Z,4.72
2019-03-05T02:49:15.792Z,5.03
2019-03-05T02:51:53.897Z,4.83
2019-03-05T02:54:42.249Z,6.17
2019-03-05T02:57:10.567Z,5.60
2019-03-05T02:59:40.092Z,5.45
2019-03-05T03:02:17.066Z,5.70
2019-03-05T03:04:47.666Z,6.60
2019-03-05T03:07:17.068Z,5.00
2019-03-05T03:09:49.129Z,4.80
2019-03-05T03:12:18.144Z,4.65
2019-03-05T03:14:47.136Z,5.25
2019-03-05T03:17:16.668Z,4.42
2019-03-05T03:19:45.716Z,4.60
2019-03-05T03:22:15.256Z,5.28
2019-03-05T03:24:44.210Z,4.83
2019-03-05T03:27:13.542Z,5.30
2019-03-05T03:29:42.795Z,5.47
2019-03-05T03:32:12.572Z,5.62
2019-03-05T03:34:42.342Z,5.25
2019-03-05T03:37:11.360Z,5.50
2019-03-05T03:39:40.902Z,6.08
2019-03-05T03:42:10.397Z,5.22
2019-03-05T03:44:39.805Z,5.28
2019-03-05T03:47:09.374Z,5.87
2019-03-05T03:49:38.695Z,5.55
2019-03-05T03:52:08.203Z,5.70
2019-03-05T03:54:37.704Z,5.75
2019-03-05T03:57:06.634Z,5.30
2019-03-05T03:59:36.095Z,5.10
2019-03-05T04:02:05.210Z,5.30
2019-03-05T04:04:34.834Z,4.87
2019-03-05T04:07:04.635Z,4.95
2019-03-05T04:09:34.123Z,5.20
2019-03-05T04:12:04.109Z,4.62
2019-03-05T04:14:33.700Z,4.40
2019-03-05T04:17:02.882Z,4.50
2019-03-05T04:19:32.991Z,4.70
2019-03-05T04:22:02.313Z,4.12
2019-03-05T04:24:31.789Z,4.05
2019-03-05T04:27:00.737Z,4.33
2019-03-05T04:29:30.200Z,4.17
2019-03-05T04:31:59.734Z,3.77
2019-03-05T04:34:29.061Z,3.90
2019-03-05T04:36:58.568Z,3.45
2019-03-05T04:39:28.296Z,3.70
2019-03-05T04:42:01.020Z,3.37
2019-03-05T04:44:34.648Z,3.85
2019-03-05T04:47:03.682Z,3.60
2019-03-05T04:50:19.438Z,3.50
2019-03-05T04:52:48.734Z,3.37
2019-03-05T04:55:18.489Z,3.70
2019-03-05T04:57:47.919Z,3.62
2019-03-05T05:00:18.108Z,3.45
2019-03-05T05:02:47.185Z,3.75
2019-03-05T05:05:16.756Z,3.85
2019-03-05T05:07:45.898Z,3.70
2019-03-05T05:10:14.833Z,3.45
2019-03-05T05:12:43.945Z,3.58
2019-03-05T05:15:27.804Z,3.77
2019-03-05T05:17:57.502Z,3.10
2019-03-05T05:20:29.134Z,2.95
2019-03-05T05:22:59.744Z,2.70
2019-03-05T05:25:29.366Z,3.20
2019-03-05T05:27:59.706Z,2.80
2019-03-05T05:30:39.352Z,2.55
2019-03-05T05:33:10.602Z,2.80
2019-03-05T05:35:44.050Z,2.62
2019-03-05T05:38:12.992Z,2.92
2019-03-05T05:40:47.361Z,2.62
2019-03-05T05:43:22.414Z,2.70
2019-03-05T05:45:53.169Z,3.37
2019-03-05T05:48:22.731Z,2.90
2019-03-05T05:50:52.555Z,2.40
2019-03-05T05:53:22.283Z,2.40
2019-03-05T05:55:57.290Z,2.20
2019-03-05T05:58:26.907Z,2.22
2019-03-05T06:00:58.068Z,2.75
2019-03-05T06:03:28.752Z,2.47
2019-03-05T06:05:58.384Z,2.98
2019-03-05T06:08:27.530Z,3.25
2019-03-05T06:10:57.132Z,2.02
2019-03-05T06:13:26.230Z,2.27
2019-03-05T06:15:55.590Z,2.75
2019-03-05T06:18:24.714Z,2.42
2019-03-05T06:20:53.793Z,1.87
2019-03-05T06:23:23.298Z,2.25
2019-03-05T06:25:52.263Z,2.10
2019-03-05T06:28:21.762Z,2.00
2019-03-05T06:30:51.270Z,2.20
2019-03-05T06:33:20.512Z,2.00
2019-03-05T06:35:50.270Z,1.90
2019-03-05T06:38:19.498Z,1.98
2019-03-05T06:40:48.918Z,2.00
2019-03-05T06:43:18.372Z,1.90
2019-03-05T06:45:47.990Z,2.08
2019-03-05T06:48:17.659Z,1.80
2019-03-05T06:50:47.045Z,2.00
2019-03-05T06:53:16.366Z,2.02
2019-03-05T06:55:45.853Z,2.27
2019-03-05T06:58:15.319Z,2.10
2019-03-05T07:00:44.499Z,2.37
2019-03-05T07:03:14.015Z,2.33
2019-03-05T07:06:19.354Z,2.00
2019-03-05T07:08:53.949Z,2.60
2019-03-05T07:11:43.008Z,2.65
2019-03-05T07:14:20.634Z,2.35
2019-03-05T07:16:52.587Z,2.45
2019-03-05T07:19:24.137Z,2.50
2019-03-05T07:22:15.474Z,2.72
2019-03-05T07:24:50.560Z,2.85
2019-03-05T07:27:22.539Z,2.98
2019-03-05T07:29:51.756Z,3.33
2019-03-05T07:32:21.422Z,3.17
2019-03-05T07:34:52.253Z,4.00
2019-03-05T07:37:21.795Z,3.10
2019-03-05T07:39:51.208Z,2.50
2019-03-05T07:42:20.637Z,2.87
2019-03-05T07:44:49.655Z,2.83
2019-03-05T07:47:18.675Z,2.72
2019-03-05T07:49:48.410Z,3.42
2019-03-05T07:52:17.463Z,3.17
2019-03-05T07:54:47.126Z,3.17
2019-03-05T07:57:16.627Z,3.55
2019-03-05T07:59:45.566Z,3.77
2019-03-05T08:02:15.077Z,3.10
2019-03-05T08:04:44.113Z,3.20
2019-03-05T08:07:13.375Z,3.45
2019-03-05T08:09:42.385Z,3.20
2019-03-05T08:12:41.697Z,3.35
2019-03-05T08:15:13.621Z,3.65
2019-03-05T08:17:43.135Z,3.58
2019-03-05T08:20:12.764Z,3.92
2019-03-05T08:22:42.330Z,3.77
2019-03-05T08:25:12.861Z,3.05
2019-03-05T08:27:42.295Z,2.77
2019-03-05T08:30:17.247Z,2.67
2019-03-05T08:32:46.766Z,3.67
2019-03-05T08:35:16.372Z,2.85
2019-03-05T08:37:45.579Z,2.70
2019-03-05T08:40:16.574Z,2.80
2019-03-05T08:42:46.346Z,3.20
2019-03-05T08:45:16.466Z,2.90
2019-03-05T08:47:46.387Z,3.27
2019-03-05T08:50:16.000Z,3.10
2019-03-05T08:52:45.315Z,3.15
2019-03-05T08:55:14.982Z,3.10
2019-03-05T08:57:44.432Z,2.85
2019-03-05T09:00:22.214Z,2.80
2019-03-05T09:02:51.274Z,3.20
2019-03-05T09:05:20.803Z,3.60
2019-03-05T09:07:51.001Z,3.58
2019-03-05T09:10:25.944Z,3.37
2019-03-05T09:12:55.383Z,3.20
2019-03-05T09:15:24.389Z,3.75
2019-03-05T09:17:54.073Z,3.25
2019-03-05T09:20:23.170Z,2.90
2019-03-05T09:22:52.598Z,3.22
2019-03-05T09:25:22.248Z,3.37
2019-03-05T09:27:51.361Z,3.17
2019-03-05T09:30:22.292Z,2.52
2019-03-05T09:32:51.823Z,2.05
2019-03-05T09:35:20.881Z,2.05
2019-03-05T09:37:50.448Z,2.25
2019-03-05T09:40:24.708Z,2.00
2019-03-05T09:42:53.642Z,2.15
2019-03-05T09:45:23.012Z,2.08
2019-03-05T09:47:52.540Z,1.90
2019-03-05T09:50:21.892Z,1.55
2019-03-05T09:52:54.992Z,1.30
2019-03-05T09:55:25.454Z,1.25
2019-03-05T09:58:06.937Z,1.50
2019-03-05T10:00:28.520Z,1.35
2019-03-05T10:02:57.517Z,1.82
2019-03-05T10:05:39.226Z,1.62
2019-03-05T10:08:08.624Z,1.77
2019-03-05T10:10:37.550Z,2.00
2019-03-05T10:13:06.340Z,1.55
2019-03-05T10:15:35.221Z,1.85
2019-03-05T10:21:33.002Z,1.87
2019-03-05T10:24:10.032Z,1.52
2019-03-05T10:26:32.632Z,1.50
2019-03-05T10:29:01.745Z,2.08
2019-03-05T10:31:33.482Z,2.60
2019-03-05T10:34:02.554Z,1.65
2019-03-05T10:36:31.488Z,1.72
2019-03-05T10:39:00.363Z,2.22
2019-03-05T10:41:29.524Z,3.17
2019-03-05T10:43:58.963Z,3.20
2019-03-05T10:46:27.870Z,2.85
2019-03-05T10:48:57.296Z,2.22
2019-03-05T10:51:29.248Z,1.87
2019-03-05T10:53:58.296Z,2.45
2019-03-05T10:56:27.223Z,3.15
2019-03-05T10:58:56.682Z,2.15
2019-03-05T11:01:26.065Z,2.10
2019-03-05T11:03:55.435Z,2.37
2019-03-05T11:06:24.414Z,2.83
2019-03-05T11:08:53.862Z,2.55
2019-03-05T11:11:23.452Z,2.67
2019-03-05T11:13:53.018Z,2.10
2019-03-05T11:16:30.418Z,2.33
2019-03-05T11:18:53.214Z,2.52
2019-03-05T11:21:22.125Z,2.30
2019-03-05T11:23:50.901Z,2.20
2019-03-05T11:26:19.727Z,2.20
2019-03-05T11:28:48.642Z,2.00
2019-03-05T11:31:17.462Z,2.27
2019-03-05T11:33:46.286Z,2.30
2019-03-05T11:36:15.312Z,2.00
2019-03-05T11:38:44.190Z,2.17
2019-03-05T11:41:13.344Z,2.70
2019-03-05T11:43:46.204Z,2.67
2019-03-05T11:46:16.801Z,2.77
2019-03-05T11:48:46.270Z,2.37
2019-03-05T11:51:15.372Z,2.80
2019-03-05T11:53:44.839Z,3.67
2019-03-05T11:56:14.231Z,3.50
2019-03-05T11:58:43.265Z,2.75
2019-03-05T12:01:16.563Z,2.27
2019-03-05T12:03:46.399Z,1.82
2019-03-05T12:06:18.004Z,1.90
2019-03-05T12:08:47.545Z,2.12
2019-03-05T12:11:16.822Z,1.85
2019-03-05T12:13:46.386Z,1.60
2019-03-05T12:16:15.819Z,1.47
2019-03-05T12:18:45.247Z,2.15
2019-03-05T12:21:14.135Z,1.60
2019-03-05T12:23:47.143Z,2.00
2019-03-05T12:26:14.930Z,1.70
2019-03-05T12:28:43.922Z,1.90
2019-03-05T12:31:16.420Z,1.50
2019-03-05T12:33:45.763Z,1.75
2019-03-05T12:36:14.755Z,1.60
2019-03-05T12:38:46.067Z,5.12
2019-03-05T12:41:14.816Z,4.67
2019-03-05T12:43:43.871Z,5.67
2019-03-05T12:46:13.296Z,6.42
2019-03-05T12:48:42.755Z,6.30
2019-03-05T12:51:11.761Z,6.50
2019-03-05T12:53:41.113Z,6.72
2019-03-05T12:56:10.773Z,6.80
2019-03-05T12:58:39.966Z,6.20
2019-03-05T13:01:09.345Z,6.55
2019-03-05T13:03:38.709Z,6.65
2019-03-05T13:06:08.086Z,7.35
2019-03-05T13:08:37.395Z,7.53
2019-03-05T13:11:09.378Z,8.48
2019-03-05T13:13:39.419Z,7.12
2019-03-05T13:16:09.057Z,8.05
2019-03-05T13:18:38.451Z,8.28
2019-03-05T13:21:08.618Z,9.20
2019-03-05T13:23:38.005Z,8.70
2019-03-05T13:26:07.459Z,10.53
2019-03-05T13:28:40.567Z,12.55
2019-03-05T13:31:09.131Z,10.68
2019-03-05T13:33:41.884Z,10.45
2019-03-05T13:36:12.487Z,9.58
2019-03-05T13:38:41.759Z,10.43
2019-03-05T13:41:15.136Z,9.00
2019-03-05T13:43:43.343Z,11.50
2019-03-05T13:46:12.570Z,12.65
2019-03-05T13:48:58.626Z,12.73
2019-03-05T13:51:32.872Z,9.03
2019-03-05T13:54:23.160Z,9.55
2019-03-05T13:57:15.279Z,9.28
2019-03-05T13:59:46.338Z,7.53
2019-03-05T14:02:22.419Z,6.42
2019-03-05T14:05:03.628Z,5.83
2019-03-05T14:08:10.430Z,6.08
2019-03-05T14:10:39.739Z,6.83
2019-03-05T14:13:09.412Z,7.37
2019-03-05T14:15:39.391Z,7.75
2019-03-05T14:18:08.967Z,10.70
2019-03-05T14:20:38.087Z,10.28
2019-03-05T14:23:07.107Z,8.18
2019-03-05T14:25:36.748Z,5.72
2019-03-05T14:28:06.612Z,5.03
2019-03-05T14:30:36.999Z,5.83
2019-03-05T14:33:06.084Z,7.05
2019-03-05T14:35:35.187Z,8.00
2019-03-05T14:38:06.081Z,9.10
2019-03-05T14:40:37.889Z,6.83
2019-03-05T14:43:09.207Z,6.83
2019-03-05T14:45:38.218Z,8.20
2019-03-05T14:48:08.265Z,8.70
2019-03-05T14:50:38.096Z,6.45
2019-03-05T14:53:08.359Z,5.72
2019-03-05T14:55:37.368Z,4.80
2019-03-05T14:58:06.444Z,4.70
2019-03-05T15:00:35.643Z,4.58
2019-03-05T15:03:05.383Z,4.05
2019-03-05T15:05:34.486Z,4.75
2019-03-05T15:08:04.336Z,4.72
2019-03-05T15:10:33.727Z,5.15
2019-03-05T15:13:14.954Z,5.47
2019-03-05T15:15:33.667Z,5.97
2019-03-05T15:18:02.712Z,4.50
2019-03-05T15:20:31.759Z,3.80
2019-03-05T15:23:00.798Z,4.08
2019-03-05T15:25:29.997Z,3.75
2019-03-05T15:27:59.474Z,5.12
2019-03-05T15:30:29.291Z,5.40
2019-03-05T15:32:59.358Z,6.03
2019-03-05T15:35:28.813Z,6.30
2019-03-05T15:37:58.055Z,6.95
2019-03-05T15:40:27.761Z,7.72
2019-03-05T15:42:57.073Z,9.38
2019-03-05T15:45:26.981Z,8.40
2019-03-05T15:47:56.563Z,6.90
2019-03-05T15:50:31.436Z,5.25
2019-03-05T15:53:00.722Z,4.55
2019-03-05T15:55:29.807Z,4.12
2019-03-05T15:57:58.973Z,3.75
2019-03-05T16:00:32.989Z,3.95
2019-03-05T16:05:31.266Z,4.00
2019-03-05T16:08:01.291Z,6.20
2019-03-05T16:10:30.700Z,5.05
2019-03-05T16:12:59.736Z,4.72
2019-03-05T16:15:30.177Z,4.33
2019-03-05T16:18:01.276Z,4.10
2019-03-05T16:20:31.304Z,3.80
2019-03-05T16:23:00.387Z,4.03
2019-03-05T16:25:29.376Z,3.52
2019-03-05T16:28:02.221Z,3.65
2019-03-05T16:30:50.365Z,4.45
2019-03-05T16:33:32.569Z,4.55
2019-03-05T16:36:12.861Z,5.20
2019-03-05T16:38:45.754Z,4.42
2019-03-05T16:41:32.815Z,5.05
2019-03-05T16:44:08.947Z,4.67
2019-03-05T16:46:55.988Z,4.50
2019-03-05T16:49:26.416Z,4.20
2019-03-05T16:51:56.853Z,3.60
2019-03-05T16:54:43.548Z,3.87
2019-03-05T16:57:13.992Z,4.70
2019-03-05T17:03:16.262Z,4.78
2019-03-05T17:05:47.128Z,5.15
2019-03-05T17:08:30.969Z,4.92
2019-03-05T17:11:18.053Z,4.60
2019-03-05T17:13:47.629Z,3.60
2019-03-05T17:16:17.052Z,4.08
2019-03-05T17:18:46.146Z,4.03
2019-03-05T17:21:15.293Z,4.53
2019-03-05T17:23:44.489Z,3.52
2019-03-05T17:26:14.916Z,3.70
2019-03-05T17:28:43.758Z,4.00
2019-03-05T17:31:12.699Z,4.47
2019-03-05T17:33:41.575Z,4.70
2019-03-05T17:36:11.186Z,4.05
2019-03-05T17:38:40.824Z,4.42
2019-03-05T17:41:10.703Z,4.15
2019-03-05T17:43:39.584Z,4.50
2019-03-05T17:46:08.972Z,4.33
2019-03-05T17:48:38.014Z,4.60
2019-03-05T17:51:07.258Z,4.75
2019-03-05T17:53:37.009Z,4.12
2019-03-05T17:56:06.882Z,4.35
2019-03-05T17:58:36.499Z,4.33
2019-03-05T18:01:07.805Z,4.40
2019-03-05T18:03:37.189Z,4.30
2019-03-05T18:06:06.364Z,4.10
2019-03-05T18:08:35.730Z,4.20
2019-03-05T18:11:05.350Z,4.25
2019-03-05T18:13:35.123Z,4.08
2019-03-05T18:16:05.639Z,4.03
2019-03-05T18:18:34.985Z,4.30
2019-03-05T18:21:04.466Z,4.00
2019-03-05T18:23:34.196Z,5.03
2019-03-05T18:26:03.256Z,4.40
2019-03-05T18:28:34.834Z,4.30
2019-03-05T18:31:05.991Z,4.97
2019-03-05T18:33:35.553Z,4.35
2019-03-05T18:36:08.333Z,4.15
2019-03-05T18:38:38.061Z,4.95
2019-03-05T18:41:07.883Z,4.72
2019-03-05T18:43:37.082Z,4.53
2019-03-05T18:46:07.013Z,4.75
2019-03-05T18:48:36.617Z,4.35
2019-03-05T18:51:05.775Z,5.12
2019-03-05T18:53:35.326Z,4.90
2019-03-05T18:56:04.391Z,4.85
2019-03-05T18:58:33.434Z,4.75
2019-03-05T19:01:03.337Z,4.97
2019-03-05T19:03:32.927Z,4.25
2019-03-05T19:06:02.620Z,6.45
2019-03-05T19:08:32.281Z,7.15
2019-03-05T19:11:01.317Z,6.83
2019-03-05T19:13:31.819Z,5.97
2019-03-05T19:16:02.508Z,5.62
2019-03-05T19:18:32.211Z,6.05
2019-03-05T19:21:02.079Z,6.75
2019-03-05T19:23:33.558Z,7.65
2019-03-05T19:26:02.562Z,8.55
2019-03-05T19:28:32.052Z,6.22
2019-03-05T19:31:01.510Z,5.78
2019-03-05T19:33:31.052Z,5.28
2019-03-05T19:36:00.568Z,5.10
2019-03-05T19:38:32.089Z,5.85
2019-03-05T19:41:21.684Z,6.35
2019-03-05T19:43:50.495Z,6.05
2019-03-05T19:46:19.262Z,4.47
2019-03-05T19:48:48.042Z,4.03
2019-03-05T19:51:16.837Z,4.42
2019-03-05T19:53:45.677Z,4.08
2019-03-05T20:00:18.840Z,3.70
2019-03-05T20:02:47.604Z,3.70
2019-03-05T20:05:17.439Z,4.03
2019-03-05T20:07:46.326Z,3.02
2019-03-05T20:10:26.339Z,3.42
2019-03-05T20:12:55.429Z,2.77
2019-03-05T20:15:24.214Z,3.30
2019-03-05T20:17:58.898Z,2.50
2019-03-05T20:20:23.620Z,2.80
2019-03-05T20:22:52.377Z,2.58
2019-03-05T20:25:29.183Z,2.62
2019-03-05T20:28:49.549Z,2.90
2019-03-05T20:31:18.562Z,3.40
2019-03-05T20:33:47.306Z,4.05
2019-03-05T20:36:16.087Z,3.47
2019-03-05T20:38:44.922Z,3.62
2019-03-05T20:41:13.719Z,3.12
2019-03-05T20:43:42.790Z,2.90
2019-03-05T20:46:14.763Z,3.10
2019-03-05T20:48:43.563Z,2.40
2019-03-05T20:51:12.427Z,2.90
2019-03-05T20:53:41.557Z,3.52
2019-03-05T20:56:10.708Z,2.95
2019-03-05T20:58:39.470Z,3.72
2019-03-05T21:01:10.056Z,2.98
2019-03-05T21:03:38.855Z,3.52
2019-03-05T21:06:07.588Z,3.27
2019-03-05T21:08:36.802Z,2.42
2019-03-05T21:11:05.533Z,2.60
2019-03-05T21:13:34.324Z,2.62
2019-03-05T21:16:03.123Z,2.80
2019-03-05T21:18:31.911Z,3.05
2019-03-05T21:21:00.981Z,7.85
2019-03-05T21:23:29.856Z,3.92
2019-03-05T21:25:58.635Z,3.77
2019-03-05T21:28:27.428Z,4.30
2019-03-05T21:30:56.244Z,3.10
2019-03-05T21:33:25.313Z,2.10
2019-03-05T21:39:35.356Z,2.30
2019-03-05T21:42:04.127Z,2.00
2019-03-05T21:44:32.892Z,2.00
2019-03-05T21:47:01.747Z,2.00
2019-03-05T21:49:30.524Z,2.40
2019-03-05T21:51:59.415Z,1.85
2019-03-05T21:54:28.262Z,2.00
2019-03-05T21:56:57.060Z,2.42
2019-03-05T21:59:25.834Z,2.15
2019-03-05T22:01:54.745Z,2.35
2019-03-05T22:04:23.476Z,2.30
2019-03-05T22:06:52.274Z,2.08
2019-03-05T22:09:21.152Z,2.47
2019-03-05T22:11:50.058Z,2.65
2019-03-05T22:14:18.786Z,3.10
2019-03-05T22:16:47.625Z,2.70
2019-03-05T22:19:16.878Z,2.40
2019-03-05T22:21:45.684Z,2.75
2019-03-05T22:24:14.498Z,2.70
2019-03-05T22:26:44.253Z,2.92
2019-03-05T22:29:13.024Z,2.00
2019-03-05T22:31:41.914Z,1.90
2019-03-05T22:34:10.787Z,2.42
2019-03-05T22:36:39.553Z,2.10
2019-03-05T22:39:08.400Z,2.20
2019-03-05T22:41:38.413Z,2.40
2019-03-05T22:44:07.339Z,2.00
2019-03-05T22:46:36.122Z,2.20
2019-03-05T22:49:05.003Z,1.52
2019-03-05T22:51:33.994Z,2.15
2019-03-05T22:54:02.891Z,2.05
2019-03-05T22:56:31.791Z,2.00
2019-03-05T22:59:00.759Z,2.00
2019-03-05T23:01:33.264Z,1.92
2019-03-05T23:04:02.255Z,1.87
2019-03-05T23:06:31.149Z,1.72
2019-03-05T23:09:00.050Z,2.72
2019-03-05T23:11:29.254Z,2.72
2019-03-05T23:13:58.141Z,2.40
2019-03-05T23:16:27.499Z,1.95
2019-03-05T23:18:56.375Z,1.95
2019-03-05T23:21:25.240Z,2.20
2019-03-05T23:23:54.321Z,1.60
2019-03-05T23:26:23.129Z,2.00
2019-03-05T23:28:52.093Z,1.77
2019-03-05T23:31:20.921Z,2.08
2019-03-05T23:33:49.711Z,2.42
2019-03-05T23:36:19.100Z,2.55
2019-03-05T23:38:48.017Z,2.05
2019-03-05T23:41:17.007Z,2.20
2019-03-05T23:43:46.009Z,2.12
2019-03-05T23:46:15.003Z,2.12
2019-03-05T23:48:44.207Z,2.30
2019-03-05T23:51:13.104Z,2.20
2019-03-05T23:53:42.809Z,2.20
2019-03-05T23:56:11.762Z,2.67
2019-03-05T23:58:40.629Z,2.70
